sensor_id;sensor_type;location;lat;lon;timestamp;P1;durP1;ratioP1;P2;durP2;ratioP2
78783;SDS011;68127;51.050;14.084;2023-05-07T00:00:42;24.05;;;12.82;;
78783;SDS011;68127;51.050;14.084;2023-05-07T00:03:07;20.08;;;11.73;;
78783;SDS011;68127;51.050;14.084;2023-05-07T00:05:33;20.58;;;12.05;;
78783;SDS011;68127;51.050;14.084;2023-05-07T00:07:58;20.13;;;11.75;;
78783;SDS011;68127;51.050;14.084;2023-05-07T00:10:23;18.77;;;11.27;;
78783;SDS011;68127;51.050;14.084;2023-05-07T00:12:48;16.73;;;10.88;;
78783;SDS011;68127;51.050;14.084;2023-05-07T00:15:14;17.55;;;11.05;;
78783;SDS011;68127;51.050;14.084;2023-05-07T00:17:39;17.83;;;11.00;;
78783;SDS011;68127;51.050;14.084;2023-05-07T00:20:04;19.15;;;11.95;;
78783;SDS011;68127;51.050;14.084;2023-05-07T00:22:30;18.85;;;11.88;;
78783;SDS011;68127;51.050;14.084;2023-05-07T00:24:57;20.13;;;12.45;;
78783;SDS011;68127;51.050;14.084;2023-05-07T00:27:22;20.25;;;12.32;;
78783;SDS011;68127;51.050;14.084;2023-05-07T00:29:48;20.67;;;12.30;;
78783;SDS011;68127;51.050;14.084;2023-05-07T00:32:13;24.02;;;12.15;;
78783;SDS011;68127;51.050;14.084;2023-05-07T00:34:38;20.05;;;12.40;;
78783;SDS011;68127;51.050;14.084;2023-05-07T00:37:04;21.60;;;12.73;;
78783;SDS011;68127;51.050;14.084;2023-05-07T00:39:30;22.77;;;13.60;;
78783;SDS011;68127;51.050;14.084;2023-05-07T00:41:55;21.85;;;13.18;;
78783;SDS011;68127;51.050;14.084;2023-05-07T00:44:20;22.25;;;13.43;;
78783;SDS011;68127;51.050;14.084;2023-05-07T00:46:46;23.73;;;13.50;;
78783;SDS011;68127;51.050;14.084;2023-05-07T00:49:13;24.88;;;14.25;;
78783;SDS011;68127;51.050;14.084;2023-05-07T00:51:39;23.67;;;13.98;;
78783;SDS011;68127;51.050;14.084;2023-05-07T00:54:04;25.02;;;14.25;;
78783;SDS011;68127;51.050;14.084;2023-05-07T00:56:29;22.85;;;14.13;;
78783;SDS011;68127;51.050;14.084;2023-05-07T00:58:55;22.73;;;13.43;;
78783;SDS011;68127;51.050;14.084;2023-05-07T01:01:20;20.52;;;12.05;;
78783;SDS011;68127;51.050;14.084;2023-05-07T01:03:46;17.88;;;12.02;;
78783;SDS011;68127;51.050;14.084;2023-05-07T01:06:11;19.58;;;11.88;;
78783;SDS011;68127;51.050;14.084;2023-05-07T01:08:37;16.58;;;11.68;;
78783;SDS011;68127;51.050;14.084;2023-05-07T01:11:04;19.50;;;11.30;;
78783;SDS011;68127;51.050;14.084;2023-05-07T01:13:30;20.20;;;12.38;;
78783;SDS011;68127;51.050;14.084;2023-05-07T01:15:56;17.55;;;11.40;;
78783;SDS011;68127;51.050;14.084;2023-05-07T01:18:21;17.05;;;10.55;;
78783;SDS011;68127;51.050;14.084;2023-05-07T01:20:47;19.95;;;12.18;;
78783;SDS011;68127;51.050;14.084;2023-05-07T01:23:12;19.75;;;11.75;;
78783;SDS011;68127;51.050;14.084;2023-05-07T01:25:37;21.67;;;11.68;;
78783;SDS011;68127;51.050;14.084;2023-05-07T01:28:03;21.30;;;12.48;;
78783;SDS011;68127;51.050;14.084;2023-05-07T01:30:28;18.75;;;11.40;;
78783;SDS011;68127;51.050;14.084;2023-05-07T01:33:08;18.27;;;10.80;;
78783;SDS011;68127;51.050;14.084;2023-05-07T01:35:36;21.27;;;12.27;;
78783;SDS011;68127;51.050;14.084;2023-05-07T01:38:03;20.45;;;12.00;;
78783;SDS011;68127;51.050;14.084;2023-05-07T01:40:30;19.88;;;12.05;;
78783;SDS011;68127;51.050;14.084;2023-05-07T01:42:56;19.00;;;11.18;;
78783;SDS011;68127;51.050;14.084;2023-05-07T01:45:21;18.83;;;10.85;;
78783;SDS011;68127;51.050;14.084;2023-05-07T01:47:46;22.02;;;12.32;;
78783;SDS011;68127;51.050;14.084;2023-05-07T01:50:12;16.38;;;10.40;;
78783;SDS011;68127;51.050;14.084;2023-05-07T01:52:38;15.07;;;9.45;;
78783;SDS011;68127;51.050;14.084;2023-05-07T01:55:04;16.60;;;9.50;;
78783;SDS011;68127;51.050;14.084;2023-05-07T01:57:30;14.48;;;8.63;;
78783;SDS011;68127;51.050;14.084;2023-05-07T01:59:55;13.25;;;9.07;;
78783;SDS011;68127;51.050;14.084;2023-05-07T02:02:20;15.30;;;8.77;;
78783;SDS011;68127;51.050;14.084;2023-05-07T02:04:45;12.90;;;8.63;;
78783;SDS011;68127;51.050;14.084;2023-05-07T02:07:11;14.10;;;8.48;;
78783;SDS011;68127;51.050;14.084;2023-05-07T02:09:36;14.85;;;8.80;;
78783;SDS011;68127;51.050;14.084;2023-05-07T02:12:01;13.63;;;8.73;;
78783;SDS011;68127;51.050;14.084;2023-05-07T02:14:27;14.05;;;7.90;;
78783;SDS011;68127;51.050;14.084;2023-05-07T02:16:52;13.07;;;7.95;;
78783;SDS011;68127;51.050;14.084;2023-05-07T02:19:17;11.30;;;7.55;;
78783;SDS011;68127;51.050;14.084;2023-05-07T02:21:43;10.52;;;6.57;;
78783;SDS011;68127;51.050;14.084;2023-05-07T02:24:08;10.70;;;6.72;;
78783;SDS011;68127;51.050;14.084;2023-05-07T02:26:33;11.52;;;7.20;;
78783;SDS011;68127;51.050;14.084;2023-05-07T02:28:59;11.15;;;7.22;;
78783;SDS011;68127;51.050;14.084;2023-05-07T02:31:24;10.68;;;7.35;;
78783;SDS011;68127;51.050;14.084;2023-05-07T02:33:50;11.68;;;7.20;;
78783;SDS011;68127;51.050;14.084;2023-05-07T02:36:15;11.57;;;7.20;;
78783;SDS011;68127;51.050;14.084;2023-05-07T02:38:40;11.57;;;7.40;;
78783;SDS011;68127;51.050;14.084;2023-05-07T02:41:05;11.80;;;7.75;;
78783;SDS011;68127;51.050;14.084;2023-05-07T02:43:31;14.30;;;8.27;;
78783;SDS011;68127;51.050;14.084;2023-05-07T02:46:06;12.60;;;8.18;;
78783;SDS011;68127;51.050;14.084;2023-05-07T02:48:32;13.88;;;8.18;;
78783;SDS011;68127;51.050;14.084;2023-05-07T02:50:58;17.15;;;8.52;;
78783;SDS011;68127;51.050;14.084;2023-05-07T02:53:23;16.05;;;10.00;;
78783;SDS011;68127;51.050;14.084;2023-05-07T02:55:51;14.88;;;9.05;;
78783;SDS011;68127;51.050;14.084;2023-05-07T02:58:16;17.48;;;9.90;;
78783;SDS011;68127;51.050;14.084;2023-05-07T03:00:42;18.65;;;9.45;;
78783;SDS011;68127;51.050;14.084;2023-05-07T03:03:07;16.20;;;10.10;;
78783;SDS011;68127;51.050;14.084;2023-05-07T03:05:32;20.65;;;10.60;;
78783;SDS011;68127;51.050;14.084;2023-05-07T03:07:58;17.50;;;9.80;;
78783;SDS011;68127;51.050;14.084;2023-05-07T03:10:23;14.85;;;9.32;;
78783;SDS011;68127;51.050;14.084;2023-05-07T03:12:48;16.88;;;9.98;;
78783;SDS011;68127;51.050;14.084;2023-05-07T03:15:13;18.52;;;10.38;;
78783;SDS011;68127;51.050;14.084;2023-05-07T03:17:39;17.50;;;10.00;;
78783;SDS011;68127;51.050;14.084;2023-05-07T03:20:04;17.65;;;10.43;;
78783;SDS011;68127;51.050;14.084;2023-05-07T03:22:30;19.20;;;11.05;;
78783;SDS011;68127;51.050;14.084;2023-05-07T03:24:55;16.70;;;9.85;;
78783;SDS011;68127;51.050;14.084;2023-05-07T03:27:20;18.13;;;11.10;;
78783;SDS011;68127;51.050;14.084;2023-05-07T03:29:46;17.38;;;10.30;;
78783;SDS011;68127;51.050;14.084;2023-05-07T03:32:11;20.02;;;11.23;;
78783;SDS011;68127;51.050;14.084;2023-05-07T03:34:36;19.05;;;11.40;;
78783;SDS011;68127;51.050;14.084;2023-05-07T03:37:01;18.58;;;11.23;;
78783;SDS011;68127;51.050;14.084;2023-05-07T03:39:27;23.80;;;12.15;;
78783;SDS011;68127;51.050;14.084;2023-05-07T03:41:52;22.30;;;10.80;;
78783;SDS011;68127;51.050;14.084;2023-05-07T03:44:17;20.33;;;11.13;;
78783;SDS011;68127;51.050;14.084;2023-05-07T03:46:43;20.70;;;11.07;;
78783;SDS011;68127;51.050;14.084;2023-05-07T03:49:08;19.65;;;11.40;;
78783;SDS011;68127;51.050;14.084;2023-05-07T03:51:33;20.10;;;11.43;;
78783;SDS011;68127;51.050;14.084;2023-05-07T03:53:58;19.67;;;11.30;;
78783;SDS011;68127;51.050;14.084;2023-05-07T03:56:24;22.75;;;10.70;;
78783;SDS011;68127;51.050;14.084;2023-05-07T03:58:51;19.52;;;11.02;;
78783;SDS011;68127;51.050;14.084;2023-05-07T04:01:16;19.15;;;10.80;;
78783;SDS011;68127;51.050;14.084;2023-05-07T04:03:42;18.38;;;10.65;;
78783;SDS011;68127;51.050;14.084;2023-05-07T04:06:07;18.45;;;10.68;;
78783;SDS011;68127;51.050;14.084;2023-05-07T04:08:32;18.85;;;11.40;;
78783;SDS011;68127;51.050;14.084;2023-05-07T04:10:58;18.50;;;10.80;;
78783;SDS011;68127;51.050;14.084;2023-05-07T04:13:23;19.63;;;10.93;;
78783;SDS011;68127;51.050;14.084;2023-05-07T04:15:49;18.23;;;10.00;;
78783;SDS011;68127;51.050;14.084;2023-05-07T04:18:14;19.50;;;9.63;;
78783;SDS011;68127;51.050;14.084;2023-05-07T04:20:40;16.30;;;8.73;;
78783;SDS011;68127;51.050;14.084;2023-05-07T04:23:05;17.45;;;9.70;;
78783;SDS011;68127;51.050;14.084;2023-05-07T04:25:30;17.80;;;10.07;;
78783;SDS011;68127;51.050;14.084;2023-05-07T04:27:56;15.10;;;9.35;;
78783;SDS011;68127;51.050;14.084;2023-05-07T04:30:21;16.85;;;8.38;;
78783;SDS011;68127;51.050;14.084;2023-05-07T04:32:46;14.88;;;8.27;;
78783;SDS011;68127;51.050;14.084;2023-05-07T04:35:13;14.48;;;8.80;;
78783;SDS011;68127;51.050;14.084;2023-05-07T04:37:38;14.80;;;8.38;;
78783;SDS011;68127;51.050;14.084;2023-05-07T04:40:03;14.63;;;8.55;;
78783;SDS011;68127;51.050;14.084;2023-05-07T04:42:29;16.77;;;8.80;;
78783;SDS011;68127;51.050;14.084;2023-05-07T04:44:54;14.35;;;8.50;;
78783;SDS011;68127;51.050;14.084;2023-05-07T04:47:19;13.60;;;8.07;;
78783;SDS011;68127;51.050;14.084;2023-05-07T04:49:45;15.60;;;9.02;;
78783;SDS011;68127;51.050;14.084;2023-05-07T04:52:10;12.95;;;7.28;;
78783;SDS011;68127;51.050;14.084;2023-05-07T04:54:35;13.82;;;8.57;;
78783;SDS011;68127;51.050;14.084;2023-05-07T04:57:00;13.60;;;7.88;;
78783;SDS011;68127;51.050;14.084;2023-05-07T04:59:28;11.35;;;6.95;;
78783;SDS011;68127;51.050;14.084;2023-05-07T05:01:53;13.20;;;7.35;;
78783;SDS011;68127;51.050;14.084;2023-05-07T05:04:19;13.02;;;7.32;;
78783;SDS011;68127;51.050;14.084;2023-05-07T05:06:44;12.95;;;7.53;;
78783;SDS011;68127;51.050;14.084;2023-05-07T05:09:09;14.15;;;7.20;;
78783;SDS011;68127;51.050;14.084;2023-05-07T05:11:35;13.07;;;6.85;;
78783;SDS011;68127;51.050;14.084;2023-05-07T05:14:01;12.15;;;7.28;;
78783;SDS011;68127;51.050;14.084;2023-05-07T05:16:26;14.18;;;7.55;;
78783;SDS011;68127;51.050;14.084;2023-05-07T05:18:52;11.70;;;7.35;;
78783;SDS011;68127;51.050;14.084;2023-05-07T05:21:19;11.32;;;7.05;;
78783;SDS011;68127;51.050;14.084;2023-05-07T05:23:44;10.55;;;6.40;;
78783;SDS011;68127;51.050;14.084;2023-05-07T05:26:09;11.32;;;6.90;;
78783;SDS011;68127;51.050;14.084;2023-05-07T05:28:34;11.68;;;6.60;;
78783;SDS011;68127;51.050;14.084;2023-05-07T05:31:00;11.48;;;6.93;;
78783;SDS011;68127;51.050;14.084;2023-05-07T05:33:25;11.02;;;6.78;;
78783;SDS011;68127;51.050;14.084;2023-05-07T05:35:50;13.75;;;8.55;;
78783;SDS011;68127;51.050;14.084;2023-05-07T05:38:16;16.15;;;8.77;;
78783;SDS011;68127;51.050;14.084;2023-05-07T05:40:41;12.40;;;7.55;;
78783;SDS011;68127;51.050;14.084;2023-05-07T05:43:06;11.02;;;7.13;;
78783;SDS011;68127;51.050;14.084;2023-05-07T05:45:31;12.15;;;7.07;;
78783;SDS011;68127;51.050;14.084;2023-05-07T05:47:57;12.38;;;6.90;;
78783;SDS011;68127;51.050;14.084;2023-05-07T05:50:22;11.43;;;6.40;;
78783;SDS011;68127;51.050;14.084;2023-05-07T05:52:47;11.63;;;6.63;;
78783;SDS011;68127;51.050;14.084;2023-05-07T05:55:13;10.23;;;6.10;;
78783;SDS011;68127;51.050;14.084;2023-05-07T05:57:38;12.18;;;7.03;;
78783;SDS011;68127;51.050;14.084;2023-05-07T06:00:03;12.20;;;7.35;;
78783;SDS011;68127;51.050;14.084;2023-05-07T06:02:29;13.00;;;8.32;;
78783;SDS011;68127;51.050;14.084;2023-05-07T06:04:54;15.40;;;9.13;;
78783;SDS011;68127;51.050;14.084;2023-05-07T06:07:20;14.52;;;8.75;;
78783;SDS011;68127;51.050;14.084;2023-05-07T06:09:45;15.43;;;8.57;;
78783;SDS011;68127;51.050;14.084;2023-05-07T06:12:11;14.52;;;9.15;;
78783;SDS011;68127;51.050;14.084;2023-05-07T06:14:36;15.15;;;8.68;;
78783;SDS011;68127;51.050;14.084;2023-05-07T06:17:02;14.75;;;8.60;;
78783;SDS011;68127;51.050;14.084;2023-05-07T06:19:27;11.65;;;7.18;;
78783;SDS011;68127;51.050;14.084;2023-05-07T06:21:53;13.45;;;7.80;;
78783;SDS011;68127;51.050;14.084;2023-05-07T06:24:18;12.02;;;7.90;;
78783;SDS011;68127;51.050;14.084;2023-05-07T06:26:43;13.50;;;7.63;;
78783;SDS011;68127;51.050;14.084;2023-05-07T06:29:09;12.43;;;7.25;;
78783;SDS011;68127;51.050;14.084;2023-05-07T06:31:34;10.20;;;6.40;;
78783;SDS011;68127;51.050;14.084;2023-05-07T06:33:59;10.65;;;6.35;;
78783;SDS011;68127;51.050;14.084;2023-05-07T06:36:26;8.05;;;5.45;;
78783;SDS011;68127;51.050;14.084;2023-05-07T06:38:52;9.90;;;6.15;;
78783;SDS011;68127;51.050;14.084;2023-05-07T06:41:17;9.55;;;6.25;;
78783;SDS011;68127;51.050;14.084;2023-05-07T06:43:42;8.50;;;5.55;;
78783;SDS011;68127;51.050;14.084;2023-05-07T06:46:07;8.02;;;5.25;;
78783;SDS011;68127;51.050;14.084;2023-05-07T06:48:33;8.27;;;5.47;;
78783;SDS011;68127;51.050;14.084;2023-05-07T06:50:58;7.82;;;5.13;;
78783;SDS011;68127;51.050;14.084;2023-05-07T06:53:23;9.05;;;4.63;;
78783;SDS011;68127;51.050;14.084;2023-05-07T06:55:49;7.40;;;4.32;;
78783;SDS011;68127;51.050;14.084;2023-05-07T06:58:14;8.45;;;4.97;;
78783;SDS011;68127;51.050;14.084;2023-05-07T07:00:39;6.68;;;4.57;;
78783;SDS011;68127;51.050;14.084;2023-05-07T07:03:05;6.72;;;4.78;;
78783;SDS011;68127;51.050;14.084;2023-05-07T07:05:31;7.40;;;4.60;;
78783;SDS011;68127;51.050;14.084;2023-05-07T07:07:56;6.43;;;4.35;;
78783;SDS011;68127;51.050;14.084;2023-05-07T07:10:22;6.07;;;4.05;;
78783;SDS011;68127;51.050;14.084;2023-05-07T07:12:47;7.40;;;4.80;;
78783;SDS011;68127;51.050;14.084;2023-05-07T07:15:13;7.43;;;4.90;;
78783;SDS011;68127;51.050;14.084;2023-05-07T07:17:39;7.15;;;4.60;;
78783;SDS011;68127;51.050;14.084;2023-05-07T07:20:04;6.82;;;4.65;;
78783;SDS011;68127;51.050;14.084;2023-05-07T07:22:30;5.60;;;4.07;;
78783;SDS011;68127;51.050;14.084;2023-05-07T07:24:55;6.78;;;4.70;;
78783;SDS011;68127;51.050;14.084;2023-05-07T07:27:21;6.90;;;4.65;;
78783;SDS011;68127;51.050;14.084;2023-05-07T07:29:46;6.18;;;4.05;;
78783;SDS011;68127;51.050;14.084;2023-05-07T07:32:11;9.02;;;4.20;;
78783;SDS011;68127;51.050;14.084;2023-05-07T07:34:36;7.35;;;4.03;;
78783;SDS011;68127;51.050;14.084;2023-05-07T07:37:02;5.30;;;3.67;;
78783;SDS011;68127;51.050;14.084;2023-05-07T07:39:30;6.00;;;4.20;;
78783;SDS011;68127;51.050;14.084;2023-05-07T07:41:56;5.93;;;3.78;;
78783;SDS011;68127;51.050;14.084;2023-05-07T07:44:21;5.65;;;3.85;;
78783;SDS011;68127;51.050;14.084;2023-05-07T07:46:46;6.20;;;3.95;;
78783;SDS011;68127;51.050;14.084;2023-05-07T07:49:12;5.85;;;4.00;;
78783;SDS011;68127;51.050;14.084;2023-05-07T07:51:37;5.82;;;4.03;;
78783;SDS011;68127;51.050;14.084;2023-05-07T07:54:02;6.93;;;4.22;;
78783;SDS011;68127;51.050;14.084;2023-05-07T07:56:28;7.35;;;4.15;;
78783;SDS011;68127;51.050;14.084;2023-05-07T07:58:53;6.38;;;4.43;;
78783;SDS011;68127;51.050;14.084;2023-05-07T08:01:18;6.15;;;4.47;;
78783;SDS011;68127;51.050;14.084;2023-05-07T08:03:43;8.25;;;5.65;;
78783;SDS011;68127;51.050;14.084;2023-05-07T08:06:09;8.80;;;5.85;;
78783;SDS011;68127;51.050;14.084;2023-05-07T08:08:34;8.45;;;5.53;;
78783;SDS011;68127;51.050;14.084;2023-05-07T08:10:59;8.88;;;5.57;;
78783;SDS011;68127;51.050;14.084;2023-05-07T08:13:24;9.25;;;5.60;;
78783;SDS011;68127;51.050;14.084;2023-05-07T08:15:50;10.07;;;5.97;;
78783;SDS011;68127;51.050;14.084;2023-05-07T08:18:15;9.35;;;5.70;;
78783;SDS011;68127;51.050;14.084;2023-05-07T08:20:40;9.30;;;5.65;;
78783;SDS011;68127;51.050;14.084;2023-05-07T08:23:06;8.20;;;5.45;;
78783;SDS011;68127;51.050;14.084;2023-05-07T08:25:35;8.38;;;5.50;;
78783;SDS011;68127;51.050;14.084;2023-05-07T08:28:00;9.60;;;6.22;;
78783;SDS011;68127;51.050;14.084;2023-05-07T08:30:26;9.63;;;6.22;;
78783;SDS011;68127;51.050;14.084;2023-05-07T08:32:51;10.60;;;6.40;;
78783;SDS011;68127;51.050;14.084;2023-05-07T08:35:16;9.18;;;5.70;;
78783;SDS011;68127;51.050;14.084;2023-05-07T08:37:41;8.30;;;6.25;;
78783;SDS011;68127;51.050;14.084;2023-05-07T08:40:07;8.18;;;5.50;;
78783;SDS011;68127;51.050;14.084;2023-05-07T08:42:34;8.35;;;5.20;;
78783;SDS011;68127;51.050;14.084;2023-05-07T08:45:01;7.55;;;5.30;;
78783;SDS011;68127;51.050;14.084;2023-05-07T08:47:33;8.52;;;5.47;;
78783;SDS011;68127;51.050;14.084;2023-05-07T08:50:00;9.85;;;5.63;;
78783;SDS011;68127;51.050;14.084;2023-05-07T08:52:27;7.95;;;5.30;;
78783;SDS011;68127;51.050;14.084;2023-05-07T08:54:52;8.88;;;5.65;;
78783;SDS011;68127;51.050;14.084;2023-05-07T08:57:17;8.70;;;5.80;;
78783;SDS011;68127;51.050;14.084;2023-05-07T08:59:44;8.88;;;5.30;;
78783;SDS011;68127;51.050;14.084;2023-05-07T09:02:10;8.30;;;5.40;;
78783;SDS011;68127;51.050;14.084;2023-05-07T09:04:36;10.05;;;6.15;;
78783;SDS011;68127;51.050;14.084;2023-05-07T09:07:10;8.75;;;5.82;;
78783;SDS011;68127;51.050;14.084;2023-05-07T09:10:01;9.15;;;6.10;;
78783;SDS011;68127;51.050;14.084;2023-05-07T09:12:27;7.75;;;5.35;;
78783;SDS011;68127;51.050;14.084;2023-05-07T09:14:52;7.95;;;5.70;;
78783;SDS011;68127;51.050;14.084;2023-05-07T09:17:18;8.55;;;5.53;;
78783;SDS011;68127;51.050;14.084;2023-05-07T09:19:44;8.77;;;5.90;;
78783;SDS011;68127;51.050;14.084;2023-05-07T09:22:10;9.23;;;5.85;;
78783;SDS011;68127;51.050;14.084;2023-05-07T09:24:35;8.60;;;5.63;;
78783;SDS011;68127;51.050;14.084;2023-05-07T09:27:03;8.25;;;5.60;;
78783;SDS011;68127;51.050;14.084;2023-05-07T09:29:29;7.35;;;4.88;;
78783;SDS011;68127;51.050;14.084;2023-05-07T09:31:57;9.75;;;5.63;;
78783;SDS011;68127;51.050;14.084;2023-05-07T09:34:23;7.53;;;5.20;;
78783;SDS011;68127;51.050;14.084;2023-05-07T09:36:48;7.55;;;5.38;;
78783;SDS011;68127;51.050;14.084;2023-05-07T09:39:13;10.02;;;5.60;;
78783;SDS011;68127;51.050;14.084;2023-05-07T09:41:45;8.63;;;5.78;;
78783;SDS011;68127;51.050;14.084;2023-05-07T09:44:12;7.40;;;5.40;;
78783;SDS011;68127;51.050;14.084;2023-05-07T09:46:38;8.40;;;6.15;;
78783;SDS011;68127;51.050;14.084;2023-05-07T09:49:03;9.00;;;5.55;;
78783;SDS011;68127;51.050;14.084;2023-05-07T09:51:39;9.45;;;5.90;;
78783;SDS011;68127;51.050;14.084;2023-05-07T09:54:06;8.55;;;6.00;;
78783;SDS011;68127;51.050;14.084;2023-05-07T09:56:32;8.18;;;5.78;;
78783;SDS011;68127;51.050;14.084;2023-05-07T09:59:01;9.15;;;6.10;;
78783;SDS011;68127;51.050;14.084;2023-05-07T10:01:29;7.68;;;5.45;;
78783;SDS011;68127;51.050;14.084;2023-05-07T10:03:56;7.93;;;5.43;;
78783;SDS011;68127;51.050;14.084;2023-05-07T10:06:24;9.85;;;5.72;;
78783;SDS011;68127;51.050;14.084;2023-05-07T10:08:50;7.53;;;5.53;;
78783;SDS011;68127;51.050;14.084;2023-05-07T10:11:17;7.85;;;5.28;;
78783;SDS011;68127;51.050;14.084;2023-05-07T10:13:42;7.00;;;5.00;;
78783;SDS011;68127;51.050;14.084;2023-05-07T10:16:08;6.93;;;4.70;;
78783;SDS011;68127;51.050;14.084;2023-05-07T10:18:33;8.02;;;5.50;;
78783;SDS011;68127;51.050;14.084;2023-05-07T10:21:01;6.72;;;4.47;;
78783;SDS011;68127;51.050;14.084;2023-05-07T10:23:36;7.45;;;5.25;;
78783;SDS011;68127;51.050;14.084;2023-05-07T10:26:04;7.10;;;5.05;;
78783;SDS011;68127;51.050;14.084;2023-05-07T10:28:30;6.72;;;4.82;;
78783;SDS011;68127;51.050;14.084;2023-05-07T10:33:51;72.43;;;38.67;;
78783;SDS011;68127;51.050;14.084;2023-05-07T10:36:18;31.70;;;16.10;;
78783;SDS011;68127;51.050;14.084;2023-05-07T10:38:43;13.40;;;8.20;;
78783;SDS011;68127;51.050;14.084;2023-05-07T10:41:09;19.02;;;10.48;;
78783;SDS011;68127;51.050;14.084;2023-05-07T10:43:38;16.80;;;9.07;;
78783;SDS011;68127;51.050;14.084;2023-05-07T10:46:13;11.40;;;6.35;;
78783;SDS011;68127;51.050;14.084;2023-05-07T10:51:27;10.65;;;6.10;;
78783;SDS011;68127;51.050;14.084;2023-05-07T10:56:39;7.63;;;4.47;;
78783;SDS011;68127;51.050;14.084;2023-05-07T10:59:30;7.63;;;5.03;;
78783;SDS011;68127;51.050;14.084;2023-05-07T11:02:02;8.77;;;4.93;;
78783;SDS011;68127;51.050;14.084;2023-05-07T11:04:29;8.40;;;5.97;;
78783;SDS011;68127;51.050;14.084;2023-05-07T11:12:17;6.30;;;4.47;;
78783;SDS011;68127;51.050;14.084;2023-05-07T11:15:09;9.43;;;5.05;;
78783;SDS011;68127;51.050;14.084;2023-05-07T11:23:55;7.43;;;5.25;;
78783;SDS011;68127;51.050;14.084;2023-05-07T11:28:33;9.82;;;5.53;;
78783;SDS011;68127;51.050;14.084;2023-05-07T11:31:01;8.50;;;5.60;;
78783;SDS011;68127;51.050;14.084;2023-05-07T11:33:27;7.95;;;5.18;;
78783;SDS011;68127;51.050;14.084;2023-05-07T11:35:56;8.30;;;4.97;;
78783;SDS011;68127;51.050;14.084;2023-05-07T11:38:21;7.82;;;5.15;;
78783;SDS011;68127;51.050;14.084;2023-05-07T11:40:50;8.27;;;5.32;;
78783;SDS011;68127;51.050;14.084;2023-05-07T11:43:16;7.95;;;5.10;;
78783;SDS011;68127;51.050;14.084;2023-05-07T11:45:41;6.88;;;5.13;;
78783;SDS011;68127;51.050;14.084;2023-05-07T11:48:06;6.45;;;4.97;;
78783;SDS011;68127;51.050;14.084;2023-05-07T11:50:32;6.72;;;4.80;;
78783;SDS011;68127;51.050;14.084;2023-05-07T11:52:57;6.30;;;4.10;;
78783;SDS011;68127;51.050;14.084;2023-05-07T11:55:23;6.38;;;4.63;;
78783;SDS011;68127;51.050;14.084;2023-05-07T11:57:49;5.78;;;4.57;;
78783;SDS011;68127;51.050;14.084;2023-05-07T12:00:15;6.15;;;4.45;;
78783;SDS011;68127;51.050;14.084;2023-05-07T12:02:41;7.88;;;5.00;;
78783;SDS011;68127;51.050;14.084;2023-05-07T12:05:07;8.27;;;5.30;;
78783;SDS011;68127;51.050;14.084;2023-05-07T12:07:33;7.05;;;4.68;;
78783;SDS011;68127;51.050;14.084;2023-05-07T12:09:58;7.35;;;5.40;;
78783;SDS011;68127;51.050;14.084;2023-05-07T12:12:24;6.93;;;5.15;;
78783;SDS011;68127;51.050;14.084;2023-05-07T12:14:49;9.68;;;5.18;;
78783;SDS011;68127;51.050;14.084;2023-05-07T12:17:14;9.02;;;5.47;;
78783;SDS011;68127;51.050;14.084;2023-05-07T12:19:41;7.05;;;5.53;;
78783;SDS011;68127;51.050;14.084;2023-05-07T12:22:08;10.20;;;5.00;;
78783;SDS011;68127;51.050;14.084;2023-05-07T12:24:43;7.05;;;4.80;;
78783;SDS011;68127;51.050;14.084;2023-05-07T12:27:09;7.32;;;5.22;;
78783;SDS011;68127;51.050;14.084;2023-05-07T12:29:34;6.30;;;4.40;;
78783;SDS011;68127;51.050;14.084;2023-05-07T12:31:59;7.82;;;4.57;;
78783;SDS011;68127;51.050;14.084;2023-05-07T12:34:24;6.13;;;4.32;;
78783;SDS011;68127;51.050;14.084;2023-05-07T12:36:50;6.60;;;4.43;;
78783;SDS011;68127;51.050;14.084;2023-05-07T12:39:15;8.18;;;4.50;;
78783;SDS011;68127;51.050;14.084;2023-05-07T12:41:53;7.15;;;4.40;;
78783;SDS011;68127;51.050;14.084;2023-05-07T12:44:22;7.53;;;4.57;;
78783;SDS011;68127;51.050;14.084;2023-05-07T12:46:48;6.57;;;4.90;;
78783;SDS011;68127;51.050;14.084;2023-05-07T12:49:13;6.38;;;4.72;;
78783;SDS011;68127;51.050;14.084;2023-05-07T12:51:39;5.60;;;4.25;;
78783;SDS011;68127;51.050;14.084;2023-05-07T12:54:04;8.60;;;3.92;;
78783;SDS011;68127;51.050;14.084;2023-05-07T12:56:30;6.43;;;4.50;;
78783;SDS011;68127;51.050;14.084;2023-05-07T12:58:59;5.32;;;4.05;;
78783;SDS011;68127;51.050;14.084;2023-05-07T13:01:28;6.30;;;4.38;;
78783;SDS011;68127;51.050;14.084;2023-05-07T13:03:54;6.88;;;4.70;;
78783;SDS011;68127;51.050;14.084;2023-05-07T13:06:20;8.48;;;4.70;;
78783;SDS011;68127;51.050;14.084;2023-05-07T13:08:45;5.80;;;4.35;;
78783;SDS011;68127;51.050;14.084;2023-05-07T13:11:10;6.38;;;4.30;;
78783;SDS011;68127;51.050;14.084;2023-05-07T13:13:37;6.20;;;4.15;;
78783;SDS011;68127;51.050;14.084;2023-05-07T13:16:04;5.72;;;3.92;;
78783;SDS011;68127;51.050;14.084;2023-05-07T13:18:39;8.15;;;4.15;;
78783;SDS011;68127;51.050;14.084;2023-05-07T13:21:05;5.82;;;4.18;;
78783;SDS011;68127;51.050;14.084;2023-05-07T13:23:31;4.97;;;3.70;;
78783;SDS011;68127;51.050;14.084;2023-05-07T13:25:56;5.07;;;3.55;;
78783;SDS011;68127;51.050;14.084;2023-05-07T13:28:21;4.65;;;3.40;;
78783;SDS011;68127;51.050;14.084;2023-05-07T13:30:48;4.82;;;3.45;;
78783;SDS011;68127;51.050;14.084;2023-05-07T13:33:13;4.90;;;3.58;;
78783;SDS011;68127;51.050;14.084;2023-05-07T13:35:38;6.40;;;3.20;;
78783;SDS011;68127;51.050;14.084;2023-05-07T13:38:04;4.75;;;3.50;;
78783;SDS011;68127;51.050;14.084;2023-05-07T13:40:29;4.97;;;3.58;;
78783;SDS011;68127;51.050;14.084;2023-05-07T13:42:56;5.72;;;3.60;;
78783;SDS011;68127;51.050;14.084;2023-05-07T13:45:26;6.50;;;3.60;;
78783;SDS011;68127;51.050;14.084;2023-05-07T13:47:54;5.28;;;3.40;;
78783;SDS011;68127;51.050;14.084;2023-05-07T13:50:22;6.32;;;4.30;;
78783;SDS011;68127;51.050;14.084;2023-05-07T13:52:47;4.85;;;3.28;;
78783;SDS011;68127;51.050;14.084;2023-05-07T13:55:16;5.03;;;3.15;;
78783;SDS011;68127;51.050;14.084;2023-05-07T13:57:42;5.68;;;3.50;;
78783;SDS011;68127;51.050;14.084;2023-05-07T14:00:08;5.00;;;3.50;;
78783;SDS011;68127;51.050;14.084;2023-05-07T14:02:34;6.90;;;3.42;;
78783;SDS011;68127;51.050;14.084;2023-05-07T14:04:59;5.00;;;3.55;;
78783;SDS011;68127;51.050;14.084;2023-05-07T14:07:24;4.57;;;3.10;;
78783;SDS011;68127;51.050;14.084;2023-05-07T14:09:50;5.47;;;3.45;;
78783;SDS011;68127;51.050;14.084;2023-05-07T14:12:15;4.90;;;3.05;;
78783;SDS011;68127;51.050;14.084;2023-05-07T14:14:40;5.10;;;3.28;;
78783;SDS011;68127;51.050;14.084;2023-05-07T14:17:05;5.50;;;3.65;;
78783;SDS011;68127;51.050;14.084;2023-05-07T14:19:31;5.03;;;3.70;;
78783;SDS011;68127;51.050;14.084;2023-05-07T14:21:56;6.55;;;3.80;;
78783;SDS011;68127;51.050;14.084;2023-05-07T14:24:21;6.07;;;3.85;;
78783;SDS011;68127;51.050;14.084;2023-05-07T14:26:46;5.85;;;3.65;;
78783;SDS011;68127;51.050;14.084;2023-05-07T14:29:12;5.88;;;3.45;;
78783;SDS011;68127;51.050;14.084;2023-05-07T14:31:37;6.18;;;3.60;;
78783;SDS011;68127;51.050;14.084;2023-05-07T14:34:02;6.70;;;3.60;;
78783;SDS011;68127;51.050;14.084;2023-05-07T14:36:28;7.32;;;4.28;;
78783;SDS011;68127;51.050;14.084;2023-05-07T14:38:55;6.30;;;4.30;;
78783;SDS011;68127;51.050;14.084;2023-05-07T14:41:21;6.05;;;4.22;;